Flight Track Log - Related Links

Times and Time Zones

All times are in EDT time to prevent confusion due to time zone crossing. See the UAL1148 flight status page for this flight to view local times or setup timezone preferences in your user account.

Time Position Orientation Groundspeed Altitude Reporting Facility
EDT Latitude Longitude Course Direction KTS MPH feet Rate Location/Type
Thu 08:57:15 PM 30.0110 -95.3491 205° Southwest  Level FlightAware Approximate
Thu 08:58:37 PM 29.9425 -95.3858 312° West 229 264 3,400  Level Houston Center
Thu 08:59:24 PM 29.9747 -95.4278 305° West 227 261 3,900 1,738 Climbing Houston Center
Thu 09:00:24 PM 30.0186 -95.5014 326° Northwest 315 362 6,500 3,100 Climbing Houston Center
Thu 09:01:24 PM 30.0778 -95.5467 349° North 320 368 10,100 3,100 Climbing Houston Center
Thu 09:02:24 PM 30.1647 -95.5669 348° North 314 361 12,700 3,076 Climbing Houston Center
Thu 09:03:23 PM 30.2603 -95.5897 349° North 324 373 16,200 3,400 Climbing Houston Center
Thu 09:04:24 PM 30.3556 -95.6103 348° North 336 387 19,500 2,926 Climbing Houston Center
Thu 09:05:24 PM 30.4569 -95.6358 351° North 354 407 22,100 2,350 Climbing Houston Center
Thu 09:06:24 PM 30.5628 -95.6544 350° North 365 420 24,200 1,950 Climbing Houston Center
Thu 09:07:24 PM 30.6750 -95.6781 351° North 388 447 26,000 1,979 Climbing Houston Center
Thu 09:09:35 PM 30.9453 -95.7253 351° North 436 502 30,500 2,010 Climbing Fort Worth Center
Thu 09:10:35 PM 31.0686 -95.7472 351° North 431 496 32,400 2,150 Climbing Fort Worth Center
Thu 09:11:35 PM 31.1858 -95.7694 351° North 431 496 34,800 2,050 Climbing Fort Worth Center
Thu 09:12:35 PM 31.3011 -95.7917 350° North 424 488 36,500 1,750 Climbing Fort Worth Center
Thu 09:13:35 PM 31.4119 -95.8142 351° North 414 476 38,300 1,750 Climbing Fort Worth Center
Thu 09:14:35 PM 31.5144 -95.8342 350° North 388 447 40,000 1,150 Climbing Fort Worth Center
Thu 09:15:35 PM 31.6108 -95.8547 349° North 388 447 40,600 400 Climbing Fort Worth Center
Thu 09:16:35 PM 31.7261 -95.8819 352° North 382 440 40,800 200 Climbing Fort Worth Center
Thu 09:17:35 PM 31.8369 -95.8997 350° North 387 445 41,000 100 Climbing Fort Worth Center
Thu 09:18:35 PM 31.9456 -95.9222 353° North 393 452 41,000  Level Fort Worth Center
Thu 09:19:35 PM 32.0544 -95.9378 350° North 393 452 41,000  Level Fort Worth Center
Thu 09:20:35 PM 32.1633 -95.9606 352° North 387 445 41,000  Level Fort Worth Center
Thu 09:21:35 PM 32.2700 -95.9786 351° North 387 445 41,000  Level Fort Worth Center
Thu 09:22:35 PM 32.3786 -95.9989 349° North 387 445 41,000  Level Fort Worth Center
Thu 09:23:35 PM 32.4833 -96.0219 351° North 387 445 41,000  Level Fort Worth Center
Thu 09:24:35 PM 32.5900 -96.0425 351° North 387 445 41,000  Level Fort Worth Center
Thu 09:25:35 PM 32.6967 -96.0631 350° North 392 451 41,000  Level Fort Worth Center
Thu 09:26:35 PM 32.8033 -96.0861 351° North 386 444 41,000  Level Fort Worth Center
Thu 09:27:35 PM 32.9122 -96.1069 350° North 391 450 41,000  Level Fort Worth Center
Thu 09:28:35 PM 33.0083 -96.1278 351° North 391 450 41,000  Level Fort Worth Center
Thu 09:29:35 PM 33.1192 -96.1483 350° North 391 450 41,000  Level Fort Worth Center
Thu 09:30:35 PM 33.2303 -96.1717 351° North 391 450 41,000  Level Fort Worth Center
Thu 09:31:35 PM 33.3389 -96.1925 350° North 397 457 41,000  Level Fort Worth Center
Thu 09:32:35 PM 33.4497 -96.2158 355° North 397 457 41,000  Level Fort Worth Center
Thu 09:33:35 PM 33.5606 -96.2269 North 397 457 41,000  Level Fort Worth Center
Thu 09:34:35 PM 33.6750 -96.2128 North 398 458 41,000  Level Fort Worth Center
Thu 09:35:35 PM 33.7856 -96.1939 North 406 467 41,000 -150 Level Fort Worth Center
Thu 09:36:35 PM 33.8981 -96.1797 North 406 467 40,700 -600 Descending Fort Worth Center
Thu 09:37:35 PM 34.0231 -96.1581 North 406 467 39,800 -1,450 Descending Fort Worth Center
Thu 09:38:35 PM 34.1189 -96.1392 North 394 453 37,800 -1,900 Descending Fort Worth Center
Thu 09:39:35 PM 34.2253 -96.1250 10° North 385 443 36,000 -1,850 Descending Fort Worth Center
Thu 09:40:35 PM 34.3458 -96.1006 North 390 449 34,100 -1,900 Descending Fort Worth Center
Thu 09:41:35 PM 34.4500 -96.0839 North 390 449 32,200 -1,850 Descending Fort Worth Center
Thu 09:42:35 PM 34.5522 -96.0697 North 384 442 30,400 -1,800 Descending Fort Worth Center
Thu 09:43:35 PM 34.6522 -96.0528 North 378 435 28,600 -1,750 Descending Fort Worth Center
Thu 09:44:35 PM 34.7522 -96.0361 North 366 421 26,900 -1,700 Descending Fort Worth Center
Thu 09:45:35 PM 34.8478 -96.0194 North 354 407 25,200 -1,700 Descending Fort Worth Center
Thu 09:46:35 PM 34.9417 -96.0028 North 347 399 23,500 -1,500 Descending Fort Worth Center
Thu 09:47:35 PM 35.0228 -95.9886 North 342 394 22,200 -1,450 Descending Fort Worth Center
Thu 09:48:35 PM 35.1122 -95.9719 North 336 387 20,600 -1,600 Descending Fort Worth Center
Thu 09:49:35 PM 35.2017 -95.9578 North 326 375 19,000 -1,650 Descending Fort Worth Center
Thu 09:50:35 PM 35.2872 -95.9436 North 321 369 17,300 -1,629 Descending Fort Worth Center
Thu 09:52:06 PM 35.4242 -95.9206 North 311 358 14,900 -1,557 Descending Kansas City Center
Thu 09:53:13 PM 35.5225 -95.9044 North 314 361 13,200 -1,465 Descending Kansas City Center
Thu 09:54:13 PM 35.6083 -95.8933 11° North 309 356 11,800 -1,388 Descending Kansas City Center
Thu 09:55:14 PM 35.6897 -95.8742 North 300 345 10,400 -1,475 Descending Kansas City Center
Thu 09:56:15 PM 35.7714 -95.8628 North 296 341 8,800 -1,537 Descending Kansas City Center
Thu 09:57:15 PM 35.8528 -95.8489 North 291 335 7,300 -1,388 Descending Kansas City Center
Thu 09:58:16 PM 35.9364 -95.8322 North 290 334 6,000 -678 Descending Kansas City Center
Thu 09:59:10 PM 36.0056 -95.8233 North 263 303 6,000 -385 Level Kansas City Center
Thu 10:00:05 PM 36.0639 -95.8139 10° North 245 282 5,300 -661 Descending Kansas City Center
Thu 10:00:59 PM 36.1203 -95.8019 North 225 259 4,800 -783 Descending Kansas City Center
Thu 10:02:00 PM 36.1789 -95.7928 North 205 236 3,800 -639 Descending Kansas City Center
Thu 10:03:01 PM 36.2353 -95.7911 North 191 220 3,500 -295 Descending Kansas City Center

Login

Don't have an account? Register now (free) for customized features, flight alerts, and more!